Evelyn Doris — WDD5558 — position and weather

sailwx.info

Track history (hours):
 
Tides and Currents Weather Stations Pressure Air Temp Water Temp Dewpoint Dewpoint Depression Visibility Wind Speed Wind Dir Waves Ship Positions

Evelyn Doris

Owner: Intracoastal Marine, Inc., Coinjock, NC. More information available from US FCC via Universal Licensing System and Coast Guard Vessel Documentation Center.

Last reported at 2018-Jun-19 01:09 UTC. Time now 2018-Jun-19 08:00 UTC.
Position N 36°43' W 076°14'.

Length 19 m; draft 3.3 m.

Type: Tug. MMSI: 367160060.

Date/timePositionNaut miles runAvg speedWind from/ knotsBaromVisibWave heightAir tempDewpointWater temp
2018-Jun-19 01:09N 36°43' W 076°14'1 1.9
2018-Jun-19 00:45N 36°43' W 076°15'1 5.6
2018-Jun-19 00:30N 36°44' W 076°17'3 5.5
2018-Jun-19 00:00N 36°46' W 076°18'2 4.2
2018-Jun-18 23:30N 36°48' W 076°17'1 2.2
2018-Jun-18 23:00N 36°50' W 076°18'3 6.6
2018-Jun-18 22:30N 36°52' W 076°20'1 1.4
2018-Jun-18 21:43N 36°53' W 076°20'0 0.1
2018-Jun-18 11:48N 36°53' W 076°20'1 2.0
2018-Jun-18 11:10N 36°52' W 076°19'1 7.4
2018-Jun-18 10:59N 36°51' W 076°18'3 5.4
2018-Jun-18 10:30N 36°48' W 076°17'0 0.0
2018-Jun-18 10:00N 36°48' W 076°17'0 0.0
2018-Jun-18 09:30N 36°48' W 076°17'0 0.0
2018-Jun-18 09:00N 36°48' W 076°17'0 0.0
2018-Jun-18 08:30N 36°48' W 076°17'0 0.0
2018-Jun-18 08:00N 36°48' W 076°17'0 0.0
2018-Jun-18 07:30N 36°48' W 076°17'0 0.0
2018-Jun-18 07:00N 36°48' W 076°17'0 0.0
2018-Jun-18 06:30N 36°48' W 076°17'0 0.0
2018-Jun-18 06:00N 36°48' W 076°17'0 0.0
2018-Jun-18 05:30N 36°48' W 076°17'0 0.0
2018-Jun-18 05:00N 36°48' W 076°17'0 0.0
2018-Jun-18 04:30N 36°48' W 076°17'0 0.0
2018-Jun-18 04:00N 36°48' W 076°17'0 0.0
2018-Jun-18 03:30N 36°48' W 076°17'0 0.0
2018-Jun-18 03:00N 36°48' W 076°17'0 0.0
2018-Jun-18 02:30N 36°48' W 076°17'0 0.0
2018-Jun-18 02:00N 36°48' W 076°17'0 0.0
2018-Jun-18 01:30N 36°48' W 076°17'0 0.0
2018-Jun-18 01:00N 36°48' W 076°17'0 0.0
2018-Jun-18 00:30N 36°48' W 076°17'0 0.0
2018-Jun-18 00:00N 36°48' W 076°17'0 0.0
2018-Jun-17 23:30N 36°48' W 076°17'0 0.0
2018-Jun-17 23:00N 36°48' W 076°17'0 0.0
2018-Jun-17 22:30N 36°48' W 076°17'0 0.0
2018-Jun-17 22:00N 36°48' W 076°17'0 0.0
2018-Jun-17 21:30N 36°48' W 076°17'0 0.0
2018-Jun-17 21:00N 36°48' W 076°17'0 0.0
2018-Jun-17 20:30N 36°48' W 076°17'0 0.0
2018-Jun-17 20:00N 36°48' W 076°17'0 0.0
2018-Jun-17 19:30N 36°48' W 076°17'0 0.0
2018-Jun-17 19:00N 36°48' W 076°17'0 0.0
2018-Jun-17 18:30N 36°48' W 076°17'0 0.0
2018-Jun-17 18:00N 36°48' W 076°17'0 0.0
2018-Jun-17 17:30N 36°48' W 076°17'0 0.0
2018-Jun-17 17:00N 36°48' W 076°17'0 0.0
2018-Jun-17 16:30N 36°48' W 076°17'0 0.0
2018-Jun-17 16:00N 36°48' W 076°17'0 0.0
2018-Jun-17 15:30N 36°48' W 076°17'0 0.0
2018-Jun-17 15:00N 36°48' W 076°17'0 0.0
2018-Jun-17 14:30N 36°48' W 076°17'0 0.0
2018-Jun-17 14:00N 36°48' W 076°17'0 0.0
2018-Jun-17 13:30N 36°48' W 076°17'0 0.0
2018-Jun-17 13:00N 36°48' W 076°17'0 0.0
2018-Jun-17 12:30N 36°48' W 076°17'0 0.0
2018-Jun-17 12:00N 36°48' W 076°17'0 0.0
2018-Jun-17 11:30N 36°48' W 076°17'0 0.0
2018-Jun-17 11:00N 36°48' W 076°17'0 0.0
2018-Jun-17 10:30N 36°48' W 076°17'0 0.0
2018-Jun-17 10:00N 36°48' W 076°17'0 0.0
2018-Jun-17 09:30N 36°48' W 076°17'0 0.0
2018-Jun-17 09:00N 36°48' W 076°17'0 0.0
2018-Jun-17 08:30N 36°48' W 076°17'0 0.0
2018-Jun-17 08:00N 36°48' W 076°17'0 0.0
2018-Jun-17 07:30N 36°48' W 076°17'0 0.0
2018-Jun-17 07:00N 36°48' W 076°17'0 0.0
2018-Jun-17 06:30N 36°48' W 076°17'0 0.0
2018-Jun-17 06:00N 36°48' W 076°17'0 0.0
2018-Jun-17 05:30N 36°48' W 076°17'0 0.0
2018-Jun-17 05:00N 36°48' W 076°17'0 0.0
2018-Jun-17 04:30N 36°48' W 076°17'0 0.0
2018-Jun-17 04:00N 36°48' W 076°17'0 0.0
2018-Jun-17 03:30N 36°48' W 076°17'0 0.0
2018-Jun-17 03:00N 36°48' W 076°17'0 0.0
2018-Jun-17 02:30N 36°48' W 076°17'0 0.0
2018-Jun-17 02:00N 36°48' W 076°17'0 0.0
2018-Jun-17 01:30N 36°48' W 076°17'0 0.0
2018-Jun-17 01:00N 36°48' W 076°17'0 0.0
2018-Jun-17 00:29N 36°48' W 076°17'0 0.0
2018-Jun-17 00:00N 36°48' W 076°17'0 0.0
2018-Jun-16 23:30N 36°48' W 076°17'0 0.0
2018-Jun-16 23:00N 36°48' W 076°17'0 0.0
2018-Jun-16 22:30N 36°48' W 076°17'0 0.0
2018-Jun-16 22:00N 36°48' W 076°17'0 0.0
2018-Jun-16 21:30N 36°48' W 076°17'0 0.0
2018-Jun-16 21:00N 36°48' W 076°17'0 0.0
2018-Jun-16 20:30N 36°48' W 076°17'0 0.0
2018-Jun-16 20:00N 36°48' W 076°17'0 0.0
2018-Jun-16 19:30N 36°48' W 076°17'0 0.0
2018-Jun-16 19:00N 36°48' W 076°17'0 0.0
2018-Jun-16 18:30N 36°48' W 076°17'0 0.0
2018-Jun-16 18:00N 36°48' W 076°17'0 0.0
2018-Jun-16 17:30N 36°48' W 076°17'0 0.0
2018-Jun-16 17:00N 36°48' W 076°17'0 0.0
2018-Jun-16 16:30N 36°48' W 076°17'0 0.1
2018-Jun-16 16:00N 36°48' W 076°17'2 3.2
2018-Jun-16 15:30N 36°50' W 076°18'0 0.2
2018-Jun-16 15:00N 36°50' W 076°18'0 0.0
2018-Jun-16 14:30N 36°50' W 076°18'0 0.0
2018-Jun-16 14:00N 36°50' W 076°18'0 0.0
2018-Jun-16 13:30N 36°50' W 076°18'0 0.2
2018-Jun-16 13:00N 36°50' W 076°18'0 0.1
2018-Jun-16 12:30N 36°50' W 076°18'0 0.0
2018-Jun-16 12:00N 36°50' W 076°18'2 3.3
2018-Jun-16 11:30N 36°49' W 076°17'0 0.1
2018-Jun-16 11:00N 36°49' W 076°17'0 0.0
2018-Jun-16 10:30N 36°49' W 076°17'0 0.0
2018-Jun-16 10:00N 36°49' W 076°17'0 0.0
2018-Jun-16 09:30N 36°49' W 076°17'0 0.0
2018-Jun-16 09:00N 36°49' W 076°17'0 0.0
2018-Jun-16 08:30N 36°49' W 076°17'0 0.0
2018-Jun-16 08:00N 36°49' W 076°17'0 0.0
2018-Jun-16 07:30N 36°49' W 076°17'0 0.0
2018-Jun-16 07:00N 36°49' W 076°17'0 0.0
2018-Jun-16 06:30N 36°49' W 076°17'0 0.0
2018-Jun-16 06:00N 36°49' W 076°17'0 0.6
2018-Jun-16 05:30N 36°48' W 076°17'2 4.2
2018-Jun-16 05:00N 36°46' W 076°18'0 0.7
2018-Jun-16 04:30N 36°46' W 076°18'2 4.4
2018-Jun-16 04:00N 36°44' W 076°17'2 3.2
2018-Jun-16 03:30N 36°43' W 076°15'1 0.0
2018-Jun-14 16:11N 36°43' W 076°14'1 1.2
2018-Jun-14 15:19N 36°44' W 076°15'1 3.3
2018-Jun-14 15:00N 36°44' W 076°17'1 2.7
2018-Jun-14 14:29N 36°45' W 076°18'1 2.1
2018-Jun-14 14:00N 36°46' W 076°18'0 0.0
2018-Jun-14 13:30N 36°46' W 076°18'1 1.1
2018-Jun-14 13:00N 36°46' W 076°18'2 4.7
2018-Jun-14 12:30N 36°49' W 076°17'4 6.6
2018-Jun-14 11:58N 36°52' W 076°19'2 4.4
2018-Jun-14 11:30N 36°50' W 076°18'2 4.1
2018-Jun-14 11:00N 36°48' W 076°17'3 6.4
2018-Jun-14 10:30N 36°51' W 076°19'2 2.9
2018-Jun-14 09:50N 36°53' W 076°20'1 2.1
2018-Jun-14 09:22N 36°52' W 076°20'2 7.0
2018-Jun-14 09:00N 36°50' W 076°18'4 7.1
2018-Jun-14 08:30N 36°47' W 076°18'1 1.5
2018-Jun-14 08:00N 36°46' W 076°18'0 0.0
2018-Jun-14 07:30N 36°46' W 076°18'0 0.9
2018-Jun-14 07:00N 36°46' W 076°18'0 0.1
2018-Jun-14 06:30N 36°46' W 076°18'1 1.4
2018-Jun-14 06:00N 36°45' W 076°18'2 4.5
2018-Jun-14 05:30N 36°44' W 076°16'1 1.5
2018-Jun-14 05:00N 36°43' W 076°15'1 0.0
2018-Jun-12 18:10N 36°43' W 076°14'1 3.2
2018-Jun-12 18:00N 36°43' W 076°15'0 0.0
2018-Jun-12 17:30N 36°43' W 076°15'0 0.0
2018-Jun-12 17:00N 36°43' W 076°15'0 0.0
2018-Jun-12 16:29N 36°43' W 076°15'0 0.0
2018-Jun-12 16:00N 36°43' W 076°15'0 0.0
2018-Jun-12 15:30N 36°43' W 076°15'0 0.0
2018-Jun-12 15:00N 36°43' W 076°15'0 0.0
2018-Jun-12 14:30N 36°43' W 076°15'0 0.0
2018-Jun-12 14:00N 36°43' W 076°15'0 0.4
2018-Jun-12 13:22N 36°43' W 076°15'1 3.6
2018-Jun-12 13:00N 36°44' W 076°16'2 4.3
2018-Jun-12 12:30N 36°46' W 076°18'0 0.6
2018-Jun-12 12:00N 36°46' W 076°18'0 0.7
2018-Jun-12 11:30N 36°46' W 076°18'2 4.6
2018-Jun-12 11:00N 36°48' W 076°17'0 0.0
2018-Jun-12 10:30N 36°48' W 076°17'0 0.0
2018-Jun-12 10:00N 36°48' W 076°17'0 0.0
2018-Jun-12 09:30N 36°48' W 076°17'0 0.0
2018-Jun-12 09:00N 36°48' W 076°17'0 0.0
2018-Jun-12 08:30N 36°48' W 076°17'0 0.0
2018-Jun-12 08:00N 36°48' W 076°17'0 0.0
2018-Jun-12 07:30N 36°48' W 076°17'0 0.0
2018-Jun-12 07:00N 36°48' W 076°17'0 0.0
2018-Jun-12 06:30N 36°48' W 076°17'0 0.0
2018-Jun-12 06:00N 36°48' W 076°17'0 0.0
2018-Jun-12 05:30N 36°48' W 076°17'0 0.0
2018-Jun-12 05:00N 36°48' W 076°17'0 0.0
2018-Jun-12 04:30N 36°48' W 076°17'0 0.0
2018-Jun-12 04:00N 36°48' W 076°17'0 0.0
2018-Jun-12 03:30N 36°48' W 076°17'0 0.0
2018-Jun-12 03:00N 36°48' W 076°17'0 0.0
2018-Jun-12 02:30N 36°48' W 076°17'0 0.0
2018-Jun-12 02:00N 36°48' W 076°17'0 0.0
2018-Jun-12 01:30N 36°48' W 076°17'0 0.0
2018-Jun-12 01:00N 36°48' W 076°17'0 0.0
2018-Jun-12 00:30N 36°48' W 076°17'0 0.0
2018-Jun-12 00:00N 36°48' W 076°17'0 0.0
2018-Jun-11 23:30N 36°48' W 076°17'0 0.0
2018-Jun-11 23:00N 36°48' W 076°17'0 0.0
2018-Jun-11 22:30N 36°48' W 076°17'0 0.0
2018-Jun-11 22:00N 36°48' W 076°17'0 0.0
2018-Jun-11 21:30N 36°48' W 076°17'0 0.0
2018-Jun-11 21:00N 36°48' W 076°17'0 0.0
2018-Jun-11 20:30N 36°48' W 076°17'0 0.0
2018-Jun-11 20:00N 36°48' W 076°17'0 0.0
2018-Jun-11 19:30N 36°48' W 076°17'0 0.0
2018-Jun-11 19:00N 36°48' W 076°17'0 0.0
2018-Jun-11 18:30N 36°48' W 076°17'0 0.0
2018-Jun-11 18:00N 36°48' W 076°17'0 0.0
2018-Jun-11 17:30N 36°48' W 076°17'0 0.0
2018-Jun-11 17:00N 36°48' W 076°17'0 0.0
2018-Jun-11 16:30N 36°48' W 076°17'0 0.0
2018-Jun-11 16:00N 36°48' W 076°17'0 0.0
2018-Jun-11 15:30N 36°48' W 076°17'0 0.0
2018-Jun-11 15:00N 36°48' W 076°17'0 0.0
2018-Jun-11 14:30N 36°48' W 076°17'0 0.0
2018-Jun-11 14:00N 36°48' W 076°17'0 0.0
2018-Jun-11 13:30N 36°48' W 076°17'0 0.0
2018-Jun-11 13:00N 36°48' W 076°17'0 0.0
2018-Jun-11 12:30N 36°48' W 076°17'0 0.0
2018-Jun-11 12:00N 36°48' W 076°17'0 0.0
2018-Jun-11 11:30N 36°48' W 076°17'0 0.4
2018-Jun-11 11:00N 36°49' W 076°17'2 4.0
2018-Jun-11 10:30N 36°47' W 076°18'2 3.4
2018-Jun-11 10:00N 36°45' W 076°18'3 5.2
2018-Jun-11 09:30N 36°43' W 076°15'0 1.0
2018-Jun-11 09:00N 36°43' W 076°14'0 0.0
2018-Jun-10 20:08N 36°43' W 076°14'0 1.6
2018-Jun-10 19:50N 36°43' W 076°15'0 0.2
2018-Jun-10 19:27N 36°43' W 076°15'1 2.8
2018-Jun-10 19:00N 36°44' W 076°16'2 3.3
2018-Jun-10 18:30N 36°45' W 076°18'2 3.5
2018-Jun-10 18:00N 36°47' W 076°18'1 2.7
2018-Jun-10 17:30N 36°48' W 076°18'0 0.0
2018-Jun-10 17:00N 36°48' W 076°18'1 1.4
2018-Jun-10 16:30N 36°48' W 076°17'  
Track history (hours):
 
Tides and Currents Weather Stations Pressure Air Temp Water Temp Dewpoint Dewpoint Depression Visibility Wind Speed Wind Dir Waves Ship Positions

Evelyn Doris

Owner: Intracoastal Marine, Inc., Coinjock, NC. More information available from US FCC via Universal Licensing System and Coast Guard Vessel Documentation Center.

Last reported at 2018-Jun-19 01:09 UTC. Time now 2018-Jun-19 08:00 UTC.
Position N 36°43' W 076°14'.

Length 19 m; draft 3.3 m.

Type: Tug. MMSI: 367160060.

Date/timePositionNaut miles runAvg speedWind from/ knotsBaromVisibWave heightAir tempDewpointWater temp
2018-Jun-19 01:09N 36°43' W 076°14'1 1.9
2018-Jun-19 00:45N 36°43' W 076°15'1 5.6
2018-Jun-19 00:30N 36°44' W 076°17'3 5.5
2018-Jun-19 00:00N 36°46' W 076°18'2 4.2
2018-Jun-18 23:30N 36°48' W 076°17'1 2.2
2018-Jun-18 23:00N 36°50' W 076°18'3 6.6
2018-Jun-18 22:30N 36°52' W 076°20'1 1.4
2018-Jun-18 21:43N 36°53' W 076°20'0 0.1
2018-Jun-18 11:48N 36°53' W 076°20'1 2.0
2018-Jun-18 11:10N 36°52' W 076°19'1 7.4
2018-Jun-18 10:59N 36°51' W 076°18'3 5.4
2018-Jun-18 10:30N 36°48' W 076°17'0 0.0
2018-Jun-18 10:00N 36°48' W 076°17'0 0.0
2018-Jun-18 09:30N 36°48' W 076°17'0 0.0
2018-Jun-18 09:00N 36°48' W 076°17'0 0.0
2018-Jun-18 08:30N 36°48' W 076°17'0 0.0
2018-Jun-18 08:00N 36°48' W 076°17'0 0.0
2018-Jun-18 07:30N 36°48' W 076°17'0 0.0
2018-Jun-18 07:00N 36°48' W 076°17'0 0.0
2018-Jun-18 06:30N 36°48' W 076°17'0 0.0
2018-Jun-18 06:00N 36°48' W 076°17'0 0.0
2018-Jun-18 05:30N 36°48' W 076°17'0 0.0
2018-Jun-18 05:00N 36°48' W 076°17'0 0.0
2018-Jun-18 04:30N 36°48' W 076°17'0 0.0
2018-Jun-18 04:00N 36°48' W 076°17'0 0.0
2018-Jun-18 03:30N 36°48' W 076°17'0 0.0
2018-Jun-18 03:00N 36°48' W 076°17'0 0.0
2018-Jun-18 02:30N 36°48' W 076°17'0 0.0
2018-Jun-18 02:00N 36°48' W 076°17'0 0.0
2018-Jun-18 01:30N 36°48' W 076°17'0 0.0
2018-Jun-18 01:00N 36°48' W 076°17'0 0.0
2018-Jun-18 00:30N 36°48' W 076°17'0 0.0
2018-Jun-18 00:00N 36°48' W 076°17'0 0.0
2018-Jun-17 23:30N 36°48' W 076°17'0 0.0
2018-Jun-17 23:00N 36°48' W 076°17'0 0.0
2018-Jun-17 22:30N 36°48' W 076°17'0 0.0
2018-Jun-17 22:00N 36°48' W 076°17'0 0.0
2018-Jun-17 21:30N 36°48' W 076°17'0 0.0
2018-Jun-17 21:00N 36°48' W 076°17'0 0.0
2018-Jun-17 20:30N 36°48' W 076°17'0 0.0
2018-Jun-17 20:00N 36°48' W 076°17'0 0.0
2018-Jun-17 19:30N 36°48' W 076°17'0 0.0
2018-Jun-17 19:00N 36°48' W 076°17'0 0.0
2018-Jun-17 18:30N 36°48' W 076°17'0 0.0
2018-Jun-17 18:00N 36°48' W 076°17'0 0.0
2018-Jun-17 17:30N 36°48' W 076°17'0 0.0
2018-Jun-17 17:00N 36°48' W 076°17'0 0.0
2018-Jun-17 16:30N 36°48' W 076°17'0 0.0
2018-Jun-17 16:00N 36°48' W 076°17'0 0.0
2018-Jun-17 15:30N 36°48' W 076°17'0 0.0
2018-Jun-17 15:00N 36°48' W 076°17'0 0.0
2018-Jun-17 14:30N 36°48' W 076°17'0 0.0
2018-Jun-17 14:00N 36°48' W 076°17'0 0.0
2018-Jun-17 13:30N 36°48' W 076°17'0 0.0
2018-Jun-17 13:00N 36°48' W 076°17'0 0.0
2018-Jun-17 12:30N 36°48' W 076°17'0 0.0
2018-Jun-17 12:00N 36°48' W 076°17'0 0.0
2018-Jun-17 11:30N 36°48' W 076°17'0 0.0
2018-Jun-17 11:00N 36°48' W 076°17'0 0.0
2018-Jun-17 10:30N 36°48' W 076°17'0 0.0
2018-Jun-17 10:00N 36°48' W 076°17'0 0.0
2018-Jun-17 09:30N 36°48' W 076°17'0 0.0
2018-Jun-17 09:00N 36°48' W 076°17'0 0.0
2018-Jun-17 08:30N 36°48' W 076°17'0 0.0
2018-Jun-17 08:00N 36°48' W 076°17'0 0.0
2018-Jun-17 07:30N 36°48' W 076°17'0 0.0
2018-Jun-17 07:00N 36°48' W 076°17'0 0.0
2018-Jun-17 06:30N 36°48' W 076°17'0 0.0
2018-Jun-17 06:00N 36°48' W 076°17'0 0.0
2018-Jun-17 05:30N 36°48' W 076°17'0 0.0
2018-Jun-17 05:00N 36°48' W 076°17'0 0.0
2018-Jun-17 04:30N 36°48' W 076°17'0 0.0
2018-Jun-17 04:00N 36°48' W 076°17'0 0.0
2018-Jun-17 03:30N 36°48' W 076°17'0 0.0
2018-Jun-17 03:00N 36°48' W 076°17'0 0.0
2018-Jun-17 02:30N 36°48' W 076°17'0 0.0
2018-Jun-17 02:00N 36°48' W 076°17'0 0.0
2018-Jun-17 01:30N 36°48' W 076°17'0 0.0
2018-Jun-17 01:00N 36°48' W 076°17'0 0.0
2018-Jun-17 00:29N 36°48' W 076°17'0 0.0
2018-Jun-17 00:00N 36°48' W 076°17'0 0.0
2018-Jun-16 23:30N 36°48' W 076°17'0 0.0
2018-Jun-16 23:00N 36°48' W 076°17'0 0.0
2018-Jun-16 22:30N 36°48' W 076°17'0 0.0
2018-Jun-16 22:00N 36°48' W 076°17'0 0.0
2018-Jun-16 21:30N 36°48' W 076°17'0 0.0
2018-Jun-16 21:00N 36°48' W 076°17'0 0.0
2018-Jun-16 20:30N 36°48' W 076°17'0 0.0
2018-Jun-16 20:00N 36°48' W 076°17'0 0.0
2018-Jun-16 19:30N 36°48' W 076°17'0 0.0
2018-Jun-16 19:00N 36°48' W 076°17'0 0.0
2018-Jun-16 18:30N 36°48' W 076°17'0 0.0
2018-Jun-16 18:00N 36°48' W 076°17'0 0.0
2018-Jun-16 17:30N 36°48' W 076°17'0 0.0
2018-Jun-16 17:00N 36°48' W 076°17'0 0.0
2018-Jun-16 16:30N 36°48' W 076°17'0 0.1
2018-Jun-16 16:00N 36°48' W 076°17'2 3.2
2018-Jun-16 15:30N 36°50' W 076°18'0 0.2
2018-Jun-16 15:00N 36°50' W 076°18'0 0.0
2018-Jun-16 14:30N 36°50' W 076°18'0 0.0
2018-Jun-16 14:00N 36°50' W 076°18'0 0.0
2018-Jun-16 13:30N 36°50' W 076°18'0 0.2
2018-Jun-16 13:00N 36°50' W 076°18'0 0.1
2018-Jun-16 12:30N 36°50' W 076°18'0 0.0
2018-Jun-16 12:00N 36°50' W 076°18'2 3.3
2018-Jun-16 11:30N 36°49' W 076°17'0 0.1
2018-Jun-16 11:00N 36°49' W 076°17'0 0.0
2018-Jun-16 10:30N 36°49' W 076°17'0 0.0
2018-Jun-16 10:00N 36°49' W 076°17'0 0.0
2018-Jun-16 09:30N 36°49' W 076°17'0 0.0
2018-Jun-16 09:00N 36°49' W 076°17'0 0.0
2018-Jun-16 08:30N 36°49' W 076°17'0 0.0
2018-Jun-16 08:00N 36°49' W 076°17'0 0.0
2018-Jun-16 07:30N 36°49' W 076°17'0 0.0
2018-Jun-16 07:00N 36°49' W 076°17'0 0.0
2018-Jun-16 06:30N 36°49' W 076°17'0 0.0
2018-Jun-16 06:00N 36°49' W 076°17'0 0.6
2018-Jun-16 05:30N 36°48' W 076°17'2 4.2
2018-Jun-16 05:00N 36°46' W 076°18'0 0.7
2018-Jun-16 04:30N 36°46' W 076°18'2 4.4
2018-Jun-16 04:00N 36°44' W 076°17'2 3.2
2018-Jun-16 03:30N 36°43' W 076°15'1 0.0
2018-Jun-14 16:11N 36°43' W 076°14'1 1.2
2018-Jun-14 15:19N 36°44' W 076°15'1 3.3
2018-Jun-14 15:00N 36°44' W 076°17'1 2.7
2018-Jun-14 14:29N 36°45' W 076°18'1 2.1
2018-Jun-14 14:00N 36°46' W 076°18'0 0.0
2018-Jun-14 13:30N 36°46' W 076°18'1 1.1
2018-Jun-14 13:00N 36°46' W 076°18'2 4.7
2018-Jun-14 12:30N 36°49' W 076°17'4 6.6
2018-Jun-14 11:58N 36°52' W 076°19'2 4.4
2018-Jun-14 11:30N 36°50' W 076°18'2 4.1
2018-Jun-14 11:00N 36°48' W 076°17'3 6.4
2018-Jun-14 10:30N 36°51' W 076°19'2 2.9
2018-Jun-14 09:50N 36°53' W 076°20'1 2.1
2018-Jun-14 09:22N 36°52' W 076°20'2 7.0
2018-Jun-14 09:00N 36°50' W 076°18'4 7.1
2018-Jun-14 08:30N 36°47' W 076°18'1 1.5
2018-Jun-14 08:00N 36°46' W 076°18'0 0.0
2018-Jun-14 07:30N 36°46' W 076°18'0 0.9
2018-Jun-14 07:00N 36°46' W 076°18'0 0.1
2018-Jun-14 06:30N 36°46' W 076°18'1 1.4
2018-Jun-14 06:00N 36°45' W 076°18'2 4.5
2018-Jun-14 05:30N 36°44' W 076°16'1 1.5
2018-Jun-14 05:00N 36°43' W 076°15'1 0.0
2018-Jun-12 18:10N 36°43' W 076°14'1 3.2
2018-Jun-12 18:00N 36°43' W 076°15'0 0.0
2018-Jun-12 17:30N 36°43' W 076°15'0 0.0
2018-Jun-12 17:00N 36°43' W 076°15'0 0.0
2018-Jun-12 16:29N 36°43' W 076°15'0 0.0
2018-Jun-12 16:00N 36°43' W 076°15'0 0.0
2018-Jun-12 15:30N 36°43' W 076°15'0 0.0
2018-Jun-12 15:00N 36°43' W 076°15'0 0.0
2018-Jun-12 14:30N 36°43' W 076°15'0 0.0
2018-Jun-12 14:00N 36°43' W 076°15'0 0.4
2018-Jun-12 13:22N 36°43' W 076°15'1 3.6
2018-Jun-12 13:00N 36°44' W 076°16'2 4.3
2018-Jun-12 12:30N 36°46' W 076°18'0 0.6
2018-Jun-12 12:00N 36°46' W 076°18'0 0.7
2018-Jun-12 11:30N 36°46' W 076°18'2 4.6
2018-Jun-12 11:00N 36°48' W 076°17'0 0.0
2018-Jun-12 10:30N 36°48' W 076°17'0 0.0
2018-Jun-12 10:00N 36°48' W 076°17'0 0.0
2018-Jun-12 09:30N 36°48' W 076°17'0 0.0
2018-Jun-12 09:00N 36°48' W 076°17'0 0.0
2018-Jun-12 08:30N 36°48' W 076°17'0 0.0
2018-Jun-12 08:00N 36°48' W 076°17'0 0.0
2018-Jun-12 07:30N 36°48' W 076°17'0 0.0
2018-Jun-12 07:00N 36°48' W 076°17'0 0.0
2018-Jun-12 06:30N 36°48' W 076°17'0 0.0
2018-Jun-12 06:00N 36°48' W 076°17'0 0.0
2018-Jun-12 05:30N 36°48' W 076°17'0 0.0
2018-Jun-12 05:00N 36°48' W 076°17'0 0.0
2018-Jun-12 04:30N 36°48' W 076°17'0 0.0
2018-Jun-12 04:00N 36°48' W 076°17'0 0.0
2018-Jun-12 03:30N 36°48' W 076°17'0 0.0
2018-Jun-12 03:00N 36°48' W 076°17'0 0.0
2018-Jun-12 02:30N 36°48' W 076°17'0 0.0
2018-Jun-12 02:00N 36°48' W 076°17'0 0.0
2018-Jun-12 01:30N 36°48' W 076°17'0 0.0
2018-Jun-12 01:00N 36°48' W 076°17'0 0.0
2018-Jun-12 00:30N 36°48' W 076°17'0 0.0
2018-Jun-12 00:00N 36°48' W 076°17'0 0.0
2018-Jun-11 23:30N 36°48' W 076°17'0 0.0
2018-Jun-11 23:00N 36°48' W 076°17'0 0.0
2018-Jun-11 22:30N 36°48' W 076°17'0 0.0
2018-Jun-11 22:00N 36°48' W 076°17'0 0.0
2018-Jun-11 21:30N 36°48' W 076°17'0 0.0
2018-Jun-11 21:00N 36°48' W 076°17'0 0.0
2018-Jun-11 20:30N 36°48' W 076°17'0 0.0
2018-Jun-11 20:00N 36°48' W 076°17'0 0.0
2018-Jun-11 19:30N 36°48' W 076°17'0 0.0
2018-Jun-11 19:00N 36°48' W 076°17'0 0.0
2018-Jun-11 18:30N 36°48' W 076°17'0 0.0
2018-Jun-11 18:00N 36°48' W 076°17'0 0.0
2018-Jun-11 17:30N 36°48' W 076°17'0 0.0
2018-Jun-11 17:00N 36°48' W 076°17'0 0.0
2018-Jun-11 16:30N 36°48' W 076°17'0 0.0
2018-Jun-11 16:00N 36°48' W 076°17'0 0.0
2018-Jun-11 15:30N 36°48' W 076°17'0 0.0
2018-Jun-11 15:00N 36°48' W 076°17'0 0.0
2018-Jun-11 14:30N 36°48' W 076°17'0 0.0
2018-Jun-11 14:00N 36°48' W 076°17'0 0.0
2018-Jun-11 13:30N 36°48' W 076°17'0 0.0
2018-Jun-11 13:00N 36°48' W 076°17'0 0.0
2018-Jun-11 12:30N 36°48' W 076°17'0 0.0
2018-Jun-11 12:00N 36°48' W 076°17'0 0.0
2018-Jun-11 11:30N 36°48' W 076°17'0 0.4
2018-Jun-11 11:00N 36°49' W 076°17'2 4.0
2018-Jun-11 10:30N 36°47' W 076°18'2 3.4
2018-Jun-11 10:00N 36°45' W 076°18'3 5.2
2018-Jun-11 09:30N 36°43' W 076°15'0 1.0
2018-Jun-11 09:00N 36°43' W 076°14'0 0.0
2018-Jun-10 20:08N 36°43' W 076°14'0 1.6
2018-Jun-10 19:50N 36°43' W 076°15'0 0.2
2018-Jun-10 19:27N 36°43' W 076°15'1 2.8
2018-Jun-10 19:00N 36°44' W 076°16'2 3.3
2018-Jun-10 18:30N 36°45' W 076°18'2 3.5
2018-Jun-10 18:00N 36°47' W 076°18'1 2.7
2018-Jun-10 17:30N 36°48' W 076°18'0 0.0
2018-Jun-10 17:00N 36°48' W 076°18'1 1.4
2018-Jun-10 16:30N 36°48' W 076°17'  

Dump ship's entire track history